La Serena, Chile
Current Conditions -  °F | °C
As of 12:00 AM on Thursday 23 Oct 2014 (Local Time) from SCSE Reporting Station
Overcast Overcast  
Wind Chill: 55°   Ceiling: 800
Heat Index: 55°   Visibility: 5mi
Dew Point: 52°   Wind: 2mph
Humidity: 88%   Direction: NA
Pressure: 29.97"   Gusts: NA
Location:  29.9°S, 71.25°W
Report Text: SCSE 230400Z VRB02KT 8000 OVC008 13/11 Q1015
Loading
Personal Weather Stations






























Interactive Weather Map
Tropical Storm Tracking
New forecast layout! Learn more

10-Day Weather Forecast

Advertisements
Track Severe Weather on mobile